Terminal Aerodrome Forecast
Issued by NWS

Home | Current Version | Previous Version | Text Only | Print | Product List | Glossary On
Versions: 1 2 3 4 5 6 7 8 9 10 11 12 13 14 15 16 17 18 19 20 21 22 23 24 25 26 27 28 29 30 31 32 33 34 35
000
FTUS43 KDLH 250200 AAB
TAFHIB
TAF AMD
KHIB 250235Z 2503/2524 16007KT P6SM VCSH SCT012 BKN050
      TEMPO 2503/2504 5SM -SHRA BR BKN025
     FM250500 17004KT 5SM BR SCT010 BKN050
      TEMPO 2505/2509 1SM BR SCT005
     FM250900 23004KT 5SM BR SCT012
     FM251300 21005KT P6SM SCT010 SCT050
     FM251600 25010G15KT P6SM SCT030=

USA.gov is the U.S. government's official web portal to all federal, state and local government web resources and services.